Time;durP1;ratioP1;P1;durP2;ratioP2;P2;SDS_P1;SDS_P2;PMS_P1;PMS_P2;Temp;Humidity;BMP_temperature;BMP_pressure;BME280_temperature;BME280_humidity;BME280_pressure;Samples;Min_cycle;Max_cycle;Signal;HPM_P1;HPM_P2
2023/04/27 00:01:20;;;;;;;0.25;0.25;;;;;;;;;;5027277;28;58889;-68
2023/04/27 00:03:46;;;;;;;1.60;0.65;;;;;;;;;;5026844;28;58876;-67
2023/04/27 00:06:11;;;;;;;0.20;0.17;;;;;;;;;;5028289;28;58437;-66
2023/04/27 00:08:36;;;;;;;0.30;0.30;;;;;;;;;;5028526;28;58946;-71
2023/04/27 00:11:01;;;;;;;0.40;0.40;;;;;;;;;;5027537;28;58471;-70
2023/04/27 00:13:27;;;;;;;0.30;0.30;;;;;;;;;;5028747;28;58897;-71
2023/04/27 00:15:52;;;;;;;0.40;0.40;;;;;;;;;;5029162;28;58541;-71
2023/04/27 00:18:17;;;;;;;0.40;0.40;;;;;;;;;;5027450;28;58352;-69
2023/04/27 00:20:43;;;;;;;0.20;0.20;;;;;;;;;;5029377;28;58668;-70
2023/04/27 00:23:08;;;;;;;0.52;0.45;;;;;;;;;;5028077;28;58513;-69
2023/04/27 00:25:33;;;;;;;0.40;0.30;;;;;;;;;;5027634;28;58495;-69
2023/04/27 00:27:58;;;;;;;0.20;0.20;;;;;;;;;;5027127;28;59009;-65
2023/04/27 00:30:24;;;;;;;0.32;0.32;;;;;;;;;;5028371;28;58322;-69
2023/04/27 00:32:49;;;;;;;0.38;0.38;;;;;;;;;;5028689;28;58530;-68
2023/04/27 00:35:14;;;;;;;0.40;0.40;;;;;;;;;;5026593;28;58706;-69
2023/04/27 00:37:39;;;;;;;0.40;0.40;;;;;;;;;;5025857;28;58929;-69
2023/04/27 00:40:06;;;;;;;0.60;0.30;;;;;;;;;;5028928;28;58579;-69
2023/04/27 00:42:31;;;;;;;0.30;0.30;;;;;;;;;;5030151;28;59069;-69
2023/04/27 00:44:57;;;;;;;1.60;0.40;;;;;;;;;;5026277;28;58883;-68
2023/04/27 00:47:22;;;;;;;0.45;0.45;;;;;;;;;;5024730;28;59098;-69
2023/04/27 00:49:48;;;;;;;0.20;0.20;;;;;;;;;;5026153;28;58257;-69
2023/04/27 00:52:13;;;;;;;1.10;0.40;;;;;;;;;;5026352;28;58644;-66
2023/04/27 00:54:38;;;;;;;0.40;0.40;;;;;;;;;;5026616;28;59166;-68
2023/04/27 00:57:03;;;;;;;0.40;0.30;;;;;;;;;;5027074;28;58517;-69
2023/04/27 00:59:28;;;;;;;0.30;0.30;;;;;;;;;;5027044;28;58350;-69
2023/04/27 01:01:54;;;;;;;0.30;0.30;;;;;;;;;;5028397;28;58968;-70
2023/04/27 01:04:20;;;;;;;0.57;0.20;;;;;;;;;;5027501;28;58682;-69
2023/04/27 01:06:45;;;;;;;0.52;0.52;;;;;;;;;;5027610;28;58399;-69
2023/04/27 01:09:10;;;;;;;0.20;0.20;;;;;;;;;;5025373;28;58470;-68
2023/04/27 01:11:36;;;;;;;1.47;0.90;;;;;;;;;;5024328;28;58644;-69
2023/04/27 01:14:05;;;;;;;0.35;0.32;;;;;;;;;;5026620;28;58970;-67
2023/04/27 01:16:31;;;;;;;0.88;0.28;;;;;;;;;;5026543;27;59001;-69
2023/04/27 01:18:56;;;;;;;0.70;0.55;;;;;;;;;;5025156;28;58337;-66
2023/04/27 01:21:21;;;;;;;0.30;0.27;;;;;;;;;;5026330;28;58791;-69
2023/04/27 01:23:47;;;;;;;0.40;0.30;;;;;;;;;;5025886;28;58617;-69
2023/04/27 01:26:15;;;;;;;0.25;0.25;;;;;;;;;;5029387;28;58388;-69
2023/04/27 01:28:40;;;;;;;0.47;0.20;;;;;;;;;;5024838;28;58663;-69
2023/04/27 01:31:05;;;;;;;0.47;0.47;;;;;;;;;;5027723;28;58438;-69
2023/04/27 01:33:30;;;;;;;0.20;0.20;;;;;;;;;;5026251;28;58687;-65
2023/04/27 01:35:55;;;;;;;0.28;0.20;;;;;;;;;;5027322;28;58858;-68
2023/04/27 01:38:21;;;;;;;0.22;0.22;;;;;;;;;;5026463;28;58678;-69
2023/04/27 01:40:46;;;;;;;0.43;0.20;;;;;;;;;;5028758;28;58387;-69
2023/04/27 01:43:11;;;;;;;0.30;0.30;;;;;;;;;;5025957;28;58482;-67
2023/04/27 01:45:36;;;;;;;0.20;0.20;;;;;;;;;;5027361;28;58448;-69
2023/04/27 01:48:01;;;;;;;1.50;0.43;;;;;;;;;;5026547;28;58723;-68
2023/04/27 01:50:26;;;;;;;0.30;0.30;;;;;;;;;;5026109;28;58635;-67
2023/04/27 01:52:52;;;;;;;0.23;0.23;;;;;;;;;;5024848;28;58352;-65
2023/04/27 01:55:17;;;;;;;0.40;0.40;;;;;;;;;;5024745;28;58758;-69
2023/04/27 01:57:42;;;;;;;0.20;0.20;;;;;;;;;;5025908;28;58816;-69
2023/04/27 02:00:08;;;;;;;0.30;0.30;;;;;;;;;;5028628;28;58600;-69
2023/04/27 02:02:33;;;;;;;0.50;0.50;;;;;;;;;;5025980;28;58932;-68
2023/04/27 02:04:58;;;;;;;0.45;0.35;;;;;;;;;;5025309;28;58406;-67
2023/04/27 02:07:23;;;;;;;0.30;0.30;;;;;;;;;;5023016;28;58714;-69
2023/04/27 02:09:48;;;;;;;0.20;0.20;;;;;;;;;;5027193;28;58298;-67
2023/04/27 02:12:13;;;;;;;0.55;0.20;;;;;;;;;;5029102;28;58707;-69
2023/04/27 02:14:39;;;;;;;0.20;0.20;;;;;;;;;;5025713;28;58490;-69
2023/04/27 02:17:04;;;;;;;0.10;0.10;;;;;;;;;;5025686;28;58481;-69
2023/04/27 02:19:29;;;;;;;0.40;0.40;;;;;;;;;;5037846;28;58930;-68
2023/04/27 02:21:54;;;;;;;0.40;0.40;;;;;;;;;;5027234;28;59566;-69
2023/04/27 02:24:20;;;;;;;0.17;0.17;;;;;;;;;;5026679;28;58771;-69
2023/04/27 02:26:45;;;;;;;0.20;0.20;;;;;;;;;;5026597;28;58696;-68
2023/04/27 02:29:10;;;;;;;0.30;0.30;;;;;;;;;;5026003;28;58811;-69
2023/04/27 02:31:35;;;;;;;0.20;0.20;;;;;;;;;;5025469;28;61180;-69
2023/04/27 02:34:00;;;;;;;0.30;0.30;;;;;;;;;;5026650;28;59217;-69
2023/04/27 02:36:26;;;;;;;0.20;0.20;;;;;;;;;;5026392;28;58575;-69
2023/04/27 02:38:51;;;;;;;1.38;0.20;;;;;;;;;;5021747;28;58929;-69
2023/04/27 02:41:16;;;;;;;0.38;0.38;;;;;;;;;;5025223;28;58672;-69
2023/04/27 02:43:42;;;;;;;0.68;0.38;;;;;;;;;;5026203;28;58447;-69
2023/04/27 02:46:07;;;;;;;0.30;0.30;;;;;;;;;;5022735;28;59565;-69
2023/04/27 02:48:32;;;;;;;0.77;0.77;;;;;;;;;;5025598;28;58601;-66
2023/04/27 02:50:57;;;;;;;0.20;0.20;;;;;;;;;;5025922;28;58989;-69
2023/04/27 02:53:22;;;;;;;0.20;0.20;;;;;;;;;;5022695;28;58836;-69
2023/04/27 02:55:48;;;;;;;0.60;0.47;;;;;;;;;;5024141;28;58424;-69
2023/04/27 02:58:13;;;;;;;5.23;1.23;;;;;;;;;;5025170;28;58528;-65
2023/04/27 03:00:39;;;;;;;0.28;0.28;;;;;;;;;;5024411;27;59560;-66
2023/04/27 03:03:05;;;;;;;0.30;0.30;;;;;;;;;;5026485;28;58245;-69
2023/04/27 03:05:30;;;;;;;0.30;0.30;;;;;;;;;;5025134;28;59941;-66
2023/04/27 03:07:55;;;;;;;0.30;0.30;;;;;;;;;;5022359;28;58900;-69
2023/04/27 03:10:20;;;;;;;0.80;0.30;;;;;;;;;;5027447;28;58512;-69
2023/04/27 03:12:46;;;;;;;0.20;0.20;;;;;;;;;;5029130;28;58419;-69
2023/04/27 03:15:11;;;;;;;0.52;0.50;;;;;;;;;;5029241;28;58626;-68
2023/04/27 03:17:36;;;;;;;0.20;0.20;;;;;;;;;;5027307;27;58331;-69
2023/04/27 03:20:03;;;;;;;0.40;0.30;;;;;;;;;;5024405;28;60054;-66
2023/04/27 03:22:28;;;;;;;0.30;0.30;;;;;;;;;;5026502;28;59816;-69
2023/04/27 03:24:53;;;;;;;0.30;0.30;;;;;;;;;;5030059;28;58447;-69
2023/04/27 03:27:18;;;;;;;0.20;0.20;;;;;;;;;;5029668;28;59754;-69
2023/04/27 03:29:43;;;;;;;0.50;0.28;;;;;;;;;;5026623;28;58581;-69
2023/04/27 03:32:09;;;;;;;0.25;0.25;;;;;;;;;;5028556;28;58882;-69
2023/04/27 03:34:34;;;;;;;0.20;0.20;;;;;;;;;;5028859;28;58407;-69
2023/04/27 03:37:00;;;;;;;0.90;0.40;;;;;;;;;;5028071;28;58345;-68
2023/04/27 03:39:26;;;;;;;0.20;0.20;;;;;;;;;;5027974;28;58405;-69
2023/04/27 03:41:51;;;;;;;0.20;0.20;;;;;;;;;;5027875;27;58457;-68
2023/04/27 03:44:16;;;;;;;0.52;0.52;;;;;;;;;;5026234;28;59207;-69
2023/04/27 03:46:41;;;;;;;0.40;0.20;;;;;;;;;;5025157;27;58621;-68
2023/04/27 03:49:07;;;;;;;0.38;0.38;;;;;;;;;;5027092;28;58605;-68
2023/04/27 03:51:32;;;;;;;0.45;0.30;;;;;;;;;;5030340;28;58422;-69
2023/04/27 03:53:57;;;;;;;0.38;0.35;;;;;;;;;;5028338;28;58514;-69
2023/04/27 03:56:23;;;;;;;0.50;0.40;;;;;;;;;;5029279;28;58328;-70
2023/04/27 03:58:48;;;;;;;0.30;0.30;;;;;;;;;;5028018;27;58950;-69
2023/04/27 04:01:13;;;;;;;2.15;0.50;;;;;;;;;;5027354;28;58418;-68
2023/04/27 04:03:38;;;;;;;0.47;0.40;;;;;;;;;;5028977;28;59714;-69
2023/04/27 04:06:04;;;;;;;0.27;0.27;;;;;;;;;;5024215;28;58465;-64
2023/04/27 04:08:29;;;;;;;0.20;0.20;;;;;;;;;;5024585;28;58382;-69
2023/04/27 04:10:57;;;;;;;0.30;0.30;;;;;;;;;;5027345;28;58615;-69
2023/04/27 04:13:23;;;;;;;0.22;0.22;;;;;;;;;;5026756;28;58153;-69
2023/04/27 04:15:48;;;;;;;1.35;0.55;;;;;;;;;;5028843;27;58514;-66
2023/04/27 04:18:13;;;;;;;0.35;0.35;;;;;;;;;;5026416;28;58772;-66
2023/04/27 04:20:38;;;;;;;0.30;0.30;;;;;;;;;;5026479;28;58764;-66
2023/04/27 04:23:03;;;;;;;0.30;0.30;;;;;;;;;;5043494;28;59184;-63
2023/04/27 04:25:28;;;;;;;0.30;0.30;;;;;;;;;;5028378;28;58775;-66
2023/04/27 04:27:53;;;;;;;0.35;0.32;;;;;;;;;;5027933;28;58523;-64
2023/04/27 04:30:19;;;;;;;0.60;0.40;;;;;;;;;;5028410;28;58406;-66
2023/04/27 04:32:44;;;;;;;0.57;0.57;;;;;;;;;;5028538;28;58681;-66
2023/04/27 04:35:10;;;;;;;0.40;0.40;;;;;;;;;;5027259;27;58744;-64
2023/04/27 04:37:35;;;;;;;3.22;1.33;;;;;;;;;;5026963;28;58308;-65
2023/04/27 04:40:02;;;;;;;3.63;1.00;;;;;;;;;;5025133;28;58382;-66
2023/04/27 04:42:28;;;;;;;4.57;1.08;;;;;;;;;;5029597;28;58211;-64
2023/04/27 04:44:53;;;;;;;1.53;1.10;;;;;;;;;;5025913;28;58889;-65
2023/04/27 04:47:18;;;;;;;3.58;1.10;;;;;;;;;;5028406;28;58420;-65
2023/04/27 04:49:43;;;;;;;0.85;0.80;;;;;;;;;;5028022;28;58814;-64
2023/04/27 04:52:08;;;;;;;1.50;0.77;;;;;;;;;;5027499;28;58451;-65
2023/04/27 04:54:33;;;;;;;2.97;1.43;;;;;;;;;;5028528;28;58392;-65
2023/04/27 04:56:59;;;;;;;5.17;1.00;;;;;;;;;;5028409;28;59071;-64
2023/04/27 04:59:25;;;;;;;3.00;1.20;;;;;;;;;;5026605;27;58787;-65
2023/04/27 05:01:54;;;;;;;0.80;0.80;;;;;;;;;;5028693;28;58967;-65
2023/04/27 05:04:19;;;;;;;1.75;1.15;;;;;;;;;;5025722;28;58586;-65
2023/04/27 05:06:44;;;;;;;3.90;1.20;;;;;;;;;;5026853;28;58415;-65
2023/04/27 05:09:09;;;;;;;1.30;0.75;;;;;;;;;;5028908;28;57865;-64
2023/04/27 05:11:35;;;;;;;1.65;0.50;;;;;;;;;;5027631;28;58568;-64
2023/04/27 05:14:00;;;;;;;3.20;1.43;;;;;;;;;;5026952;28;58766;-64
2023/04/27 05:16:25;;;;;;;1.10;1.00;;;;;;;;;;5028398;28;58448;-67
2023/04/27 05:18:50;;;;;;;3.03;0.95;;;;;;;;;;5026364;28;58615;-68
2023/04/27 05:21:16;;;;;;;1.70;1.03;;;;;;;;;;5027782;28;58411;-68
2023/04/27 05:23:41;;;;;;;0.70;0.70;;;;;;;;;;5026493;28;58508;-68
2023/04/27 05:26:10;;;;;;;0.80;0.60;;;;;;;;;;5028186;28;58472;-68
2023/04/27 05:28:35;;;;;;;3.53;0.52;;;;;;;;;;5028092;28;59786;-66
2023/04/27 05:31:01;;;;;;;1.95;0.60;;;;;;;;;;5027327;28;58395;-68
2023/04/27 05:33:26;;;;;;;0.68;0.55;;;;;;;;;;5027868;28;58109;-68
2023/04/27 05:35:51;;;;;;;1.48;0.90;;;;;;;;;;5026511;28;58241;-68
2023/04/27 05:38:16;;;;;;;2.33;0.70;;;;;;;;;;5024835;28;58502;-68
2023/04/27 05:40:41;;;;;;;1.50;0.97;;;;;;;;;;5028278;28;58343;-68
2023/04/27 05:43:06;;;;;;;1.70;0.60;;;;;;;;;;5026773;28;58739;-68
2023/04/27 05:45:31;;;;;;;3.60;0.90;;;;;;;;;;5028214;28;58305;-66
2023/04/27 05:47:56;;;;;;;0.50;0.40;;;;;;;;;;5027150;28;59140;-68
2023/04/27 05:50:22;;;;;;;1.23;0.63;;;;;;;;;;5025100;28;58829;-67
2023/04/27 05:52:47;;;;;;;1.13;0.63;;;;;;;;;;5027129;28;59022;-68
2023/04/27 05:55:12;;;;;;;1.20;1.10;;;;;;;;;;5024965;28;59270;-67
2023/04/27 05:57:38;;;;;;;9.95;1.60;;;;;;;;;;5027872;28;58643;-66
2023/04/27 06:00:07;;;;;;;1.67;0.80;;;;;;;;;;5027731;28;58826;-68
2023/04/27 06:02:33;;;;;;;1.20;0.70;;;;;;;;;;5024771;27;58209;-68
2023/04/27 06:04:58;;;;;;;1.43;0.53;;;;;;;;;;5027548;28;57929;-68
2023/04/27 06:07:23;;;;;;;1.50;0.85;;;;;;;;;;5027409;28;58273;-69
2023/04/27 06:09:48;;;;;;;2.13;0.60;;;;;;;;;;5026289;28;59723;-68
2023/04/27 06:12:13;;;;;;;3.33;0.90;;;;;;;;;;5027840;28;58134;-68
2023/04/27 06:14:39;;;;;;;1.88;1.05;;;;;;;;;;5026789;28;58626;-69
2023/04/27 06:17:04;;;;;;;2.00;1.00;;;;;;;;;;5027184;28;58469;-67
2023/04/27 06:19:30;;;;;;;1.23;0.50;;;;;;;;;;5027304;28;59109;-68
2023/04/27 06:21:55;;;;;;;0.65;0.40;;;;;;;;;;5026687;28;60141;-67
2023/04/27 06:24:21;;;;;;;2.83;1.23;;;;;;;;;;5026709;28;58398;-68
2023/04/27 06:26:46;;;;;;;5.40;0.93;;;;;;;;;;5026917;28;59184;-67
2023/04/27 06:29:11;;;;;;;1.07;0.77;;;;;;;;;;5027026;28;58817;-67
2023/04/27 06:31:36;;;;;;;0.90;0.90;;;;;;;;;;5026064;28;58741;-67
2023/04/27 06:34:02;;;;;;;0.50;0.50;;;;;;;;;;5027188;28;58910;-68
2023/04/27 06:36:27;;;;;;;1.02;0.68;;;;;;;;;;5026965;28;58425;-68
2023/04/27 06:38:56;;;;;;;1.03;0.60;;;;;;;;;;5026020;28;58411;-68
2023/04/27 06:41:21;;;;;;;0.63;0.40;;;;;;;;;;5025322;28;60223;-68
2023/04/27 06:43:46;;;;;;;1.20;0.57;;;;;;;;;;5026107;28;58994;-68
2023/04/27 06:46:12;;;;;;;1.00;0.40;;;;;;;;;;5027769;28;58375;-67
2023/04/27 06:48:37;;;;;;;0.50;0.50;;;;;;;;;;5028492;28;58398;-68
2023/04/27 06:51:02;;;;;;;0.80;0.63;;;;;;;;;;5028538;28;58653;-68
2023/04/27 06:53:27;;;;;;;0.97;0.40;;;;;;;;;;5030107;28;58738;-67
2023/04/27 06:55:52;;;;;;;1.20;0.70;;;;;;;;;;5028964;28;58814;-67
2023/04/27 06:58:17;;;;;;;0.83;0.50;;;;;;;;;;5029597;28;58356;-67
2023/04/27 07:00:43;;;;;;;0.82;0.50;;;;;;;;;;5029199;28;58004;-66
2023/04/27 07:03:08;;;;;;;0.67;0.67;;;;;;;;;;5030057;28;58724;-68
2023/04/27 07:05:33;;;;;;;0.65;0.60;;;;;;;;;;5029404;28;58691;-68
2023/04/27 07:07:58;;;;;;;0.63;0.60;;;;;;;;;;5029813;28;59124;-68
2023/04/27 07:10:23;;;;;;;1.37;1.07;;;;;;;;;;5029713;28;58575;-68
2023/04/27 07:12:48;;;;;;;0.43;0.32;;;;;;;;;;5030397;28;58625;-68
2023/04/27 07:15:15;;;;;;;0.50;0.50;;;;;;;;;;5027492;28;59049;-68
2023/04/27 07:17:40;;;;;;;2.00;0.80;;;;;;;;;;5030225;28;58074;-68
2023/04/27 07:20:06;;;;;;;0.47;0.40;;;;;;;;;;5029955;28;58317;-69
2023/04/27 07:22:31;;;;;;;0.50;0.40;;;;;;;;;;5029409;28;58881;-67
2023/04/27 07:24:56;;;;;;;1.95;0.80;;;;;;;;;;5029782;28;58461;-68
2023/04/27 07:27:22;;;;;;;1.55;0.68;;;;;;;;;;5028965;28;58889;-67
2023/04/27 07:29:47;;;;;;;0.80;0.60;;;;;;;;;;5028834;28;58611;-68
2023/04/27 07:32:12;;;;;;;0.80;0.80;;;;;;;;;;5029972;28;57909;-68
2023/04/27 07:34:37;;;;;;;0.83;0.60;;;;;;;;;;5027576;28;58697;-67
2023/04/27 07:37:02;;;;;;;2.05;0.50;;;;;;;;;;5025662;28;58475;-68
2023/04/27 07:39:27;;;;;;;3.47;0.63;;;;;;;;;;5030212;28;58469;-68
2023/04/27 07:41:53;;;;;;;1.13;0.75;;;;;;;;;;5029198;28;58570;-68
2023/04/27 07:44:18;;;;;;;0.40;0.40;;;;;;;;;;5028801;28;58756;-68
2023/04/27 07:46:46;;;;;;;1.40;1.00;;;;;;;;;;5027508;28;58713;-68
2023/04/27 07:49:12;;;;;;;0.85;0.50;;;;;;;;;;5029489;28;58656;-68
2023/04/27 07:51:38;;;;;;;0.73;0.70;;;;;;;;;;5029988;28;58665;-68
2023/04/27 07:54:03;;;;;;;0.40;0.40;;;;;;;;;;5028839;28;58702;-67
2023/04/27 07:56:28;;;;;;;1.48;0.60;;;;;;;;;;5025874;28;58237;-68
2023/04/27 07:58:54;;;;;;;1.00;0.40;;;;;;;;;;5027210;28;58392;-68
2023/04/27 08:01:20;;;;;;;0.95;0.50;;;;;;;;;;5028009;28;58884;-67
2023/04/27 08:03:45;;;;;;;0.85;0.35;;;;;;;;;;5029241;28;58879;-66
2023/04/27 08:06:10;;;;;;;0.37;0.30;;;;;;;;;;5029869;28;59059;-68
2023/04/27 08:08:35;;;;;;;0.85;0.63;;;;;;;;;;5028386;28;58613;-67
2023/04/27 08:11:00;;;;;;;0.77;0.40;;;;;;;;;;5029883;28;58781;-68
2023/04/27 08:13:26;;;;;;;1.38;0.63;;;;;;;;;;5028376;28;58371;-68
2023/04/27 08:15:53;;;;;;;0.30;0.30;;;;;;;;;;5027564;28;58630;-68
2023/04/27 08:18:18;;;;;;;0.50;0.50;;;;;;;;;;5029224;28;59012;-68
2023/04/27 08:20:43;;;;;;;0.40;0.40;;;;;;;;;;5026339;28;58667;-68
2023/04/27 08:23:08;;;;;;;0.90;0.90;;;;;;;;;;5028635;28;58850;-68
2023/04/27 08:25:37;;;;;;;0.63;0.60;;;;;;;;;;5028402;28;58867;-68
2023/04/27 08:28:02;;;;;;;0.35;0.35;;;;;;;;;;5027383;28;58854;-68
2023/04/27 08:30:27;;;;;;;0.82;0.30;;;;;;;;;;5029311;28;58606;-68
2023/04/27 08:32:54;;;;;;;0.95;0.60;;;;;;;;;;5028896;28;58785;-68
2023/04/27 08:35:19;;;;;;;1.73;0.60;;;;;;;;;;5029053;28;58467;-69
2023/04/27 08:37:45;;;;;;;0.60;0.40;;;;;;;;;;5027693;28;58899;-68
2023/04/27 08:40:10;;;;;;;0.40;0.40;;;;;;;;;;5028021;28;58720;-68
2023/04/27 08:42:36;;;;;;;0.30;0.30;;;;;;;;;;5029578;28;58357;-67
2023/04/27 08:45:01;;;;;;;0.52;0.45;;;;;;;;;;5026574;28;60213;-65
2023/04/27 08:47:26;;;;;;;0.57;0.40;;;;;;;;;;5027423;28;58730;-68
2023/04/27 08:49:51;;;;;;;0.47;0.47;;;;;;;;;;5026872;28;58631;-68
2023/04/27 08:52:17;;;;;;;0.30;0.30;;;;;;;;;;5026424;28;58354;-68
2023/04/27 08:54:42;;;;;;;0.40;0.40;;;;;;;;;;5028608;28;59043;-68
2023/04/27 08:57:08;;;;;;;0.90;0.30;;;;;;;;;;5028590;28;58979;-67
2023/04/27 08:59:35;;;;;;;1.05;0.60;;;;;;;;;;5026509;28;58777;-66
2023/04/27 09:02:00;;;;;;;0.93;0.30;;;;;;;;;;5027241;28;58233;-67
2023/04/27 09:04:35;;;;;;;0.95;0.60;;;;;;;;;;5027152;28;58300;-68
2023/04/27 09:07:08;;;;;;;0.40;0.30;;;;;;;;;;5025920;28;58773;-67
2023/04/27 09:09:34;;;;;;;0.30;0.30;;;;;;;;;;5029142;28;57921;-68
2023/04/27 09:11:59;;;;;;;0.60;0.30;;;;;;;;;;5026649;28;58792;-69
2023/04/27 09:14:24;;;;;;;0.80;0.73;;;;;;;;;;5026815;28;58682;-68
2023/04/27 09:16:56;;;;;;;0.40;0.40;;;;;;;;;;5028824;28;58339;-67
2023/04/27 09:19:28;;;;;;;0.30;0.30;;;;;;;;;;5027532;28;58490;-67
2023/04/27 09:22:07;;;;;;;0.80;0.80;;;;;;;;;;5027727;28;58007;-64
2023/04/27 09:24:32;;;;;;;0.20;0.20;;;;;;;;;;5028626;28;59093;-65
2023/04/27 09:26:57;;;;;;;0.40;0.40;;;;;;;;;;5025581;28;58833;-64
2023/04/27 09:29:35;;;;;;;0.40;0.40;;;;;;;;;;5027100;28;58788;-64
2023/04/27 09:32:00;;;;;;;;;;;;;;;;;;5028334;28;58980;-65
2023/04/27 09:34:36;;;;;;;0.32;0.32;;;;;;;;;;5027060;28;58486;-64
2023/04/27 09:37:01;;;;;;;0.20;0.20;;;;;;;;;;5026500;28;58483;-64
2023/04/27 09:39:27;;;;;;;1.17;0.77;;;;;;;;;;5025268;28;58722;-65
2023/04/27 09:41:52;;;;;;;0.32;0.32;;;;;;;;;;5027503;28;58837;-65
2023/04/27 09:44:17;;;;;;;0.40;0.40;;;;;;;;;;5027383;28;59230;-65
2023/04/27 09:46:44;;;;;;;0.60;0.47;;;;;;;;;;5026986;28;58684;-63
2023/04/27 09:49:10;;;;;;;0.20;0.20;;;;;;;;;;5027685;28;59400;-64
2023/04/27 09:51:35;;;;;;;0.40;0.40;;;;;;;;;;5026401;28;58115;-64
2023/04/27 09:54:02;;;;;;;0.40;0.40;;;;;;;;;;5026030;28;58728;-65
2023/04/27 09:56:54;;;;;;;1.20;0.55;;;;;;;;;;5026972;28;58101;-64
2023/04/27 09:59:19;;;;;;;0.40;0.40;;;;;;;;;;5028143;28;58419;-65
2023/04/27 10:01:53;;;;;;;1.20;0.30;;;;;;;;;;5025055;28;58765;-64
2023/04/27 10:04:29;;;;;;;0.30;0.30;;;;;;;;;;5026215;28;58950;-65
2023/04/27 10:06:58;;;;;;;0.80;0.80;;;;;;;;;;5026477;28;58609;-65
2023/04/27 10:09:24;;;;;;;0.20;0.20;;;;;;;;;;5027295;28;58376;-65
2023/04/27 10:11:51;;;;;;;0.35;0.35;;;;;;;;;;5027927;28;58754;-64
2023/04/27 10:14:17;;;;;;;0.52;0.43;;;;;;;;;;5025955;28;58590;-62
2023/04/27 10:16:45;;;;;;;0.38;0.38;;;;;;;;;;5027322;28;58637;-65
2023/04/27 10:19:11;;;;;;;0.30;0.30;;;;;;;;;;5027998;28;59037;-65
2023/04/27 10:21:37;;;;;;;0.47;0.47;;;;;;;;;;5031611;28;58321;-68
2023/04/27 10:24:07;;;;;;;0.65;0.47;;;;;;;;;;5029328;28;58822;-68
2023/04/27 10:26:32;;;;;;;0.32;0.32;;;;;;;;;;5028750;28;58691;-68
2023/04/27 10:29:07;;;;;;;0.22;0.22;;;;;;;;;;5031114;28;58424;-67
2023/04/27 10:31:33;;;;;;;0.28;0.28;;;;;;;;;;5030675;28;59095;-68
2023/04/27 10:34:07;;;;;;;0.30;0.30;;;;;;;;;;5030300;28;58352;-68
2023/04/27 10:36:33;;;;;;;0.40;0.40;;;;;;;;;;5030262;28;58408;-68
2023/04/27 10:38:59;;;;;;;0.30;0.30;;;;;;;;;;5028834;28;59055;-68
2023/04/27 10:41:32;;;;;;;0.30;0.30;;;;;;;;;;5030268;28;59400;-68
2023/04/27 10:44:11;;;;;;;0.45;0.45;;;;;;;;;;5029387;28;58397;-64
2023/04/27 10:46:48;;;;;;;0.73;0.50;;;;;;;;;;5028703;28;58515;-68
2023/04/27 10:49:13;;;;;;;0.30;0.30;;;;;;;;;;5030317;28;58534;-68
2023/04/27 10:51:38;;;;;;;0.30;0.30;;;;;;;;;;5030560;28;58160;-67
2023/04/27 10:54:04;;;;;;;0.30;0.30;;;;;;;;;;5028811;28;58236;-67
2023/04/27 10:56:31;;;;;;;0.30;0.30;;;;;;;;;;5029042;28;58556;-65
2023/04/27 10:59:00;;;;;;;0.47;0.45;;;;;;;;;;5030189;28;58395;-68
2023/04/27 11:01:27;;;;;;;0.40;0.30;;;;;;;;;;5028825;28;58288;-68
2023/04/27 11:03:53;;;;;;;0.30;0.30;;;;;;;;;;5029637;28;58665;-68
2023/04/27 11:06:19;;;;;;;0.50;0.40;;;;;;;;;;5030502;28;58385;-68
2023/04/27 11:08:44;;;;;;;0.70;0.50;;;;;;;;;;5030161;28;58407;-67
2023/04/27 11:11:13;;;;;;;0.22;0.22;;;;;;;;;;5029323;28;59025;-67
2023/04/27 11:13:38;;;;;;;0.60;0.32;;;;;;;;;;5028210;28;58681;-68
2023/04/27 11:16:03;;;;;;;0.22;0.22;;;;;;;;;;5030304;28;58416;-67
2023/04/27 11:18:30;;;;;;;0.30;0.30;;;;;;;;;;5030435;28;58368;-68
2023/04/27 11:21:09;;;;;;;0.25;0.25;;;;;;;;;;5028797;28;58612;-68
2023/04/27 11:23:37;;;;;;;0.40;0.38;;;;;;;;;;5028345;28;58423;-68
2023/04/27 11:26:08;;;;;;;0.35;0.35;;;;;;;;;;5028222;28;58355;-68
2023/04/27 11:28:34;;;;;;;0.40;0.40;;;;;;;;;;5028498;28;58753;-68
2023/04/27 11:30:59;;;;;;;0.30;0.30;;;;;;;;;;5029895;28;59027;-68
2023/04/27 11:33:25;;;;;;;1.30;0.37;;;;;;;;;;5029648;28;58593;-68
2023/04/27 11:35:50;;;;;;;2.53;0.57;;;;;;;;;;5029308;28;58773;-68
2023/04/27 11:38:17;;;;;;;0.70;0.40;;;;;;;;;;5028031;28;59800;-68
2023/04/27 11:40:42;;;;;;;0.50;0.50;;;;;;;;;;5027411;28;59061;-69
2023/04/27 11:43:10;;;;;;;0.93;0.50;;;;;;;;;;5027145;28;58761;-68
2023/04/27 11:45:40;;;;;;;0.68;0.68;;;;;;;;;;5028076;28;59024;-67
2023/04/27 11:48:06;;;;;;;0.73;0.73;;;;;;;;;;5027038;28;58515;-67
2023/04/27 11:50:31;;;;;;;0.90;0.73;;;;;;;;;;5030284;28;58776;-67
2023/04/27 11:52:59;;;;;;;0.60;0.60;;;;;;;;;;5028581;28;58637;-68
2023/04/27 11:55:24;;;;;;;0.50;0.50;;;;;;;;;;5027790;28;58225;-64
2023/04/27 11:57:54;;;;;;;2.53;0.70;;;;;;;;;;5029253;28;59211;-66
2023/04/27 12:00:20;;;;;;;1.95;0.63;;;;;;;;;;5028524;28;59451;-67
2023/04/27 12:02:45;;;;;;;0.93;0.60;;;;;;;;;;5029115;28;58685;-67
2023/04/27 12:05:11;;;;;;;3.03;0.70;;;;;;;;;;5028616;28;58596;-67
2023/04/27 12:07:36;;;;;;;0.75;0.73;;;;;;;;;;5028805;28;58781;-67
2023/04/27 12:10:02;;;;;;;2.53;1.08;;;;;;;;;;5029892;28;58631;-68
2023/04/27 12:12:27;;;;;;;3.35;1.05;;;;;;;;;;5028867;28;58443;-67
2023/04/27 12:14:52;;;;;;;3.47;1.20;;;;;;;;;;5027632;28;58240;-67
2023/04/27 12:17:17;;;;;;;3.37;1.30;;;;;;;;;;5029025;28;58717;-67
2023/04/27 12:19:43;;;;;;;1.90;0.70;;;;;;;;;;5028390;28;58397;-67
2023/04/27 12:22:08;;;;;;;1.38;0.90;;;;;;;;;;5026966;28;58393;-67
2023/04/27 12:24:33;;;;;;;1.88;0.77;;;;;;;;;;5027639;28;58633;-66
2023/04/27 12:26:59;;;;;;;6.77;1.40;;;;;;;;;;5028443;28;58933;-67
2023/04/27 12:29:25;;;;;;;1.80;1.08;;;;;;;;;;5026961;28;58947;-68
2023/04/27 12:31:50;;;;;;;1.53;1.00;;;;;;;;;;5028295;28;60033;-67
2023/04/27 12:34:16;;;;;;;3.30;1.23;;;;;;;;;;5028159;28;59645;-67
2023/04/27 12:36:41;;;;;;;2.47;1.25;;;;;;;;;;5025491;28;60142;-67
2023/04/27 12:39:14;;;;;;;1.70;0.80;;;;;;;;;;5025770;28;59377;-67
2023/04/27 12:41:40;;;;;;;4.53;1.42;;;;;;;;;;5025667;28;59197;-68
2023/04/27 12:44:05;;;;;;;4.68;1.20;;;;;;;;;;5024345;28;59947;-64
2023/04/27 12:46:31;;;;;;;2.35;1.52;;;;;;;;;;5026284;28;59285;-67
2023/04/27 12:48:56;;;;;;;1.40;1.00;;;;;;;;;;5026334;28;59519;-68
2023/04/27 12:51:21;;;;;;;2.20;1.10;;;;;;;;;;5026978;28;59327;-67
2023/04/27 12:53:46;;;;;;;2.15;1.55;;;;;;;;;;5027852;28;59752;-68
2023/04/27 12:56:12;;;;;;;3.78;0.88;;;;;;;;;;5026897;28;58849;-67
2023/04/27 12:58:37;;;;;;;1.43;0.90;;;;;;;;;;5024919;28;59082;-67
2023/04/27 13:01:02;;;;;;;4.67;1.40;;;;;;;;;;5028894;28;59295;-67
2023/04/27 13:03:27;;;;;;;2.20;0.90;;;;;;;;;;5028488;28;59833;-67
2023/04/27 13:05:53;;;;;;;5.10;1.38;;;;;;;;;;5026075;28;59261;-67
2023/04/27 13:08:18;;;;;;;2.58;0.98;;;;;;;;;;5025816;28;59578;-68
2023/04/27 13:10:43;;;;;;;1.50;1.17;;;;;;;;;;5022597;28;60568;-68
2023/04/27 13:13:08;;;;;;;3.33;0.93;;;;;;;;;;5024204;28;59794;-68
2023/04/27 13:15:33;;;;;;;1.23;0.97;;;;;;;;;;5027275;28;59465;-67
2023/04/27 13:17:59;;;;;;;0.95;0.93;;;;;;;;;;5024164;28;59629;-68
2023/04/27 13:20:24;;;;;;;2.80;1.17;;;;;;;;;;5022992;28;59350;-68
2023/04/27 13:22:49;;;;;;;1.40;1.02;;;;;;;;;;5025000;28;59701;-68
2023/04/27 13:25:15;;;;;;;2.78;1.20;;;;;;;;;;5024031;28;59235;-68
2023/04/27 13:27:40;;;;;;;4.03;0.90;;;;;;;;;;5026317;28;59309;-63
2023/04/27 13:30:07;;;;;;;1.77;0.90;;;;;;;;;;5028083;28;59865;-68
2023/04/27 13:32:32;;;;;;;2.13;1.27;;;;;;;;;;5025866;28;59593;-65
2023/04/27 13:34:58;;;;;;;2.83;1.20;;;;;;;;;;5047870;27;59277;-71
2023/04/27 13:37:23;;;;;;;1.45;0.80;;;;;;;;;;5026494;28;59730;-67
2023/04/27 13:39:48;;;;;;;1.85;1.70;;;;;;;;;;5025213;28;58505;-64
2023/04/27 13:42:13;;;;;;;1.65;0.82;;;;;;;;;;5001054;28;59199;-64
2023/04/27 13:44:38;;;;;;;0.65;0.65;;;;;;;;;;5021831;28;58566;-63
2023/04/27 13:47:04;;;;;;;3.47;0.82;;;;;;;;;;5024465;28;59611;-65
2023/04/27 13:49:29;;;;;;;2.33;0.87;;;;;;;;;;5026738;28;60060;-65
2023/04/27 13:51:54;;;;;;;1.97;1.00;;;;;;;;;;5022417;28;58535;-70
2023/04/27 13:54:20;;;;;;;2.77;0.60;;;;;;;;;;5005892;28;59277;-67
2023/04/27 13:56:45;;;;;;;1.60;0.57;;;;;;;;;;5006296;28;59244;-67
2023/04/27 13:59:10;;;;;;;2.05;0.52;;;;;;;;;;5004974;28;58717;-70
2023/04/27 14:01:36;;;;;;;0.90;0.90;;;;;;;;;;5005836;28;59883;-69
2023/04/27 14:04:02;;;;;;;3.45;1.10;;;;;;;;;;5008408;28;59611;-68
2023/04/27 14:06:27;;;;;;;1.73;0.93;;;;;;;;;;5027310;28;59551;-70
2023/04/27 14:08:52;;;;;;;5.33;0.80;;;;;;;;;;5024376;28;59252;-69
2023/04/27 14:11:18;;;;;;;3.17;0.90;;;;;;;;;;5026151;28;60175;-69
2023/04/27 14:13:43;;;;;;;0.70;0.60;;;;;;;;;;5025558;28;59663;-73
2023/04/27 14:16:08;;;;;;;1.10;0.88;;;;;;;;;;5024602;28;60401;-70
2023/04/27 14:18:33;;;;;;;3.40;0.90;;;;;;;;;;5024144;28;59151;-70
2023/04/27 14:20:58;;;;;;;1.33;0.60;;;;;;;;;;5022837;28;61519;-71
2023/04/27 14:23:24;;;;;;;2.22;1.00;;;;;;;;;;5024438;28;59112;-68
2023/04/27 14:25:49;;;;;;;2.90;0.90;;;;;;;;;;5025515;28;59569;-71
2023/04/27 14:28:14;;;;;;;0.97;0.70;;;;;;;;;;5025269;28;60029;-67
2023/04/27 14:30:39;;;;;;;0.90;0.90;;;;;;;;;;5026299;28;59157;-66
2023/04/27 14:33:05;;;;;;;4.90;1.00;;;;;;;;;;5026267;28;59574;-64
2023/04/27 14:35:32;;;;;;;1.15;0.90;;;;;;;;;;5026569;28;59854;-68